createdAt,value
2022-09-06T00:00:30.814Z,19.63
2022-09-06T00:02:59.298Z,19.63
2022-09-06T00:05:27.386Z,19.53
2022-09-06T00:07:55.578Z,19.52
2022-09-06T00:10:23.377Z,19.01
2022-09-06T00:12:51.241Z,18.74
2022-09-06T00:15:19.665Z,18.71
2022-09-06T00:17:49.427Z,18.74
2022-09-06T00:20:17.648Z,19.15
2022-09-06T00:22:45.473Z,19.09
2022-09-06T00:25:13.297Z,18.80
2022-09-06T00:27:41.098Z,18.64
2022-09-06T00:30:11.277Z,18.64
2022-09-06T00:32:39.080Z,18.53
2022-09-06T00:35:08.663Z,18.38
2022-09-06T00:37:36.471Z,18.59
2022-09-06T00:40:04.994Z,18.56
2022-09-06T00:42:32.938Z,18.42
2022-09-06T00:45:01.480Z,18.27
2022-09-06T00:47:30.695Z,18.40
2022-09-06T00:50:01.201Z,18.52
2022-09-06T00:52:33.081Z,18.51
2022-09-06T00:55:01.283Z,18.33
2022-09-06T00:57:32.132Z,18.45
2022-09-06T01:00:03.200Z,18.23
2022-09-06T01:02:31.440Z,18.25
2022-09-06T01:04:59.857Z,17.99
2022-09-06T01:07:48.236Z,18.41
2022-09-06T01:10:54.977Z,18.50
2022-09-06T01:13:37.869Z,17.95
2022-09-06T01:16:17.449Z,17.77
2022-09-06T01:19:15.772Z,17.56
2022-09-06T01:21:56.484Z,17.63
2022-09-06T01:25:05.152Z,17.51
2022-09-06T01:28:03.755Z,17.72
2022-09-06T01:30:39.066Z,17.73
2022-09-06T01:33:17.611Z,17.73
2022-09-06T01:35:53.106Z,18.04
2022-09-06T01:38:21.317Z,17.74
2022-09-06T01:40:49.221Z,18.04
2022-09-06T01:43:27.101Z,18.07
2022-09-06T01:46:03.397Z,17.97
2022-09-06T01:48:52.807Z,18.05
2022-09-06T01:51:32.403Z,18.02
2022-09-06T01:54:36.268Z,17.95
2022-09-06T01:57:23.581Z,17.94
2022-09-06T02:00:09.715Z,17.79
2022-09-06T02:02:54.526Z,17.79
2022-09-06T02:05:33.077Z,17.68
2022-09-06T02:08:11.803Z,17.50
2022-09-06T02:10:47.249Z,17.93
2022-09-06T02:13:18.588Z,17.87
2022-09-06T02:15:56.577Z,17.75
2022-09-06T02:18:30.764Z,17.93
2022-09-06T02:21:02.709Z,17.79
2022-09-06T02:23:36.649Z,17.50
2022-09-06T02:26:10.817Z,17.51
2022-09-06T02:28:38.906Z,17.07
2022-09-06T02:31:17.558Z,17.61
2022-09-06T02:33:48.465Z,17.24
2022-09-06T02:36:16.629Z,17.42
2022-09-06T02:38:47.044Z,17.27
2022-09-06T02:41:22.549Z,17.60
2022-09-06T02:43:50.932Z,17.82
2022-09-06T02:46:20.240Z,17.52
2022-09-06T02:48:48.127Z,17.35
2022-09-06T02:51:16.008Z,17.14
2022-09-06T02:53:44.380Z,17.14
2022-09-06T02:56:12.663Z,17.14
2022-09-06T02:58:40.659Z,17.12
2022-09-06T03:01:09.104Z,17.09
2022-09-06T03:03:38.350Z,17.60
2022-09-06T03:06:06.686Z,17.15
2022-09-06T03:08:36.420Z,17.32
2022-09-06T03:11:08.912Z,16.75
2022-09-06T03:13:39.646Z,16.66
2022-09-06T03:16:16.394Z,16.61
2022-09-06T03:18:54.127Z,16.88
2022-09-06T03:21:28.537Z,16.96
2022-09-06T03:24:06.263Z,16.73
2022-09-06T03:26:37.988Z,16.81
2022-09-06T03:29:09.192Z,16.74
2022-09-06T03:31:39.690Z,16.72
2022-09-06T03:34:18.106Z,16.32
2022-09-06T03:36:48.679Z,17.04
2022-09-06T03:39:19.182Z,16.75
2022-09-06T03:41:48.341Z,17.12
2022-09-06T03:44:25.050Z,17.46
2022-09-06T03:46:55.970Z,16.97
2022-09-06T03:49:26.517Z,17.57
2022-09-06T03:52:04.520Z,17.79
2022-09-06T03:54:34.828Z,17.09
2022-09-06T03:57:09.878Z,17.53
2022-09-06T03:59:41.176Z,16.96
2022-09-06T04:02:24.412Z,16.91
2022-09-06T04:05:05.628Z,17.24
2022-09-06T04:07:35.146Z,16.81
2022-09-06T04:10:10.462Z,17.13
2022-09-06T04:12:39.653Z,17.34
2022-09-06T04:15:10.984Z,17.37
2022-09-06T04:17:42.264Z,17.05
2022-09-06T04:20:21.000Z,16.68
2022-09-06T04:22:50.324Z,17.00
2022-09-06T04:25:21.221Z,16.71
2022-09-06T04:27:52.050Z,16.78
2022-09-06T04:30:19.853Z,17.00
2022-09-06T04:32:47.690Z,16.94
2022-09-06T04:35:17.021Z,16.90
2022-09-06T04:37:44.832Z,16.58
2022-09-06T04:40:13.430Z,16.64
2022-09-06T04:42:41.258Z,16.76
2022-09-06T04:45:10.658Z,16.63
2022-09-06T04:47:38.746Z,17.02
2022-09-06T04:50:07.677Z,16.71
2022-09-06T04:52:36.791Z,17.06
2022-09-06T04:55:05.974Z,16.96
2022-09-06T04:57:33.975Z,16.87
2022-09-06T05:00:04.579Z,16.73
2022-09-06T05:02:32.422Z,16.99
2022-09-06T05:05:00.233Z,17.08
2022-09-06T05:07:28.047Z,16.85
2022-09-06T05:10:00.068Z,17.03
2022-09-06T05:12:27.906Z,16.97
2022-09-06T05:14:55.738Z,17.11
2022-09-06T05:17:23.554Z,17.59
2022-09-06T05:19:51.393Z,17.13
2022-09-06T05:22:19.444Z,16.83
2022-09-06T05:24:47.353Z,16.49
2022-09-06T05:27:16.548Z,16.69
2022-09-06T05:29:44.400Z,16.97
2022-09-06T05:32:12.221Z,17.12
2022-09-06T05:34:40.414Z,16.82
2022-09-06T05:37:08.238Z,16.78
2022-09-06T05:39:36.117Z,17.21
2022-09-06T05:42:06.590Z,17.03
2022-09-06T05:44:36.040Z,17.79
2022-09-06T05:47:05.025Z,17.31
2022-09-06T05:49:33.462Z,17.18
2022-09-06T05:52:01.378Z,17.75
2022-09-06T05:54:29.245Z,17.62
2022-09-06T05:56:57.068Z,17.88
2022-09-06T05:59:24.869Z,17.72
2022-09-06T06:01:55.179Z,17.93
2022-09-06T06:04:23.389Z,18.03
2022-09-06T06:06:51.611Z,18.29
2022-09-06T06:09:19.463Z,17.68
2022-09-06T06:11:47.287Z,17.16
2022-09-06T06:14:15.108Z,17.71
2022-09-06T06:16:42.962Z,17.33
2022-09-06T06:19:12.466Z,16.91
2022-09-06T06:21:40.301Z,17.28
2022-09-06T06:24:08.793Z,17.72
2022-09-06T06:26:37.794Z,17.81
2022-09-06T06:29:09.523Z,17.61
2022-09-06T06:31:39.754Z,17.82
2022-09-06T06:34:08.368Z,17.74
2022-09-06T06:36:38.344Z,18.04
2022-09-06T06:39:08.881Z,17.54
2022-09-06T06:41:37.714Z,17.93
2022-09-06T06:44:07.132Z,18.54
2022-09-06T06:46:37.637Z,18.21
2022-09-06T06:49:06.334Z,18.34
2022-09-06T06:51:37.865Z,18.96
2022-09-06T06:54:07.065Z,18.43
2022-09-06T06:56:37.727Z,18.56
2022-09-06T06:59:08.094Z,17.56
2022-09-06T07:01:37.419Z,18.13
2022-09-06T07:04:07.144Z,17.99
2022-09-06T07:12:27.204Z,19.83
2022-09-06T07:14:55.581Z,19.44
2022-09-06T07:17:23.765Z,18.68
2022-09-06T07:22:41.767Z,18.90
2022-09-06T07:25:15.312Z,19.20
2022-09-06T07:30:19.915Z,19.25
2022-09-06T07:32:48.173Z,18.42
2022-09-06T07:35:16.248Z,19.00
2022-09-06T07:37:52.916Z,19.47
2022-09-06T07:40:20.997Z,19.55
2022-09-06T07:42:49.102Z,18.89
2022-09-06T07:45:17.508Z,18.83
2022-09-06T07:48:00.873Z,19.22
2022-09-06T07:50:47.706Z,19.46
2022-09-06T07:53:27.770Z,19.32
2022-09-06T07:56:00.069Z,19.62
2022-09-06T07:58:28.636Z,19.10
2022-09-06T08:01:15.033Z,19.57
2022-09-06T08:03:43.192Z,18.94
2022-09-06T08:06:11.232Z,18.50
2022-09-06T08:11:28.324Z,18.33
2022-09-06T08:13:57.734Z,18.42
2022-09-06T08:16:28.751Z,19.41
2022-09-06T08:18:58.906Z,19.30
2022-09-06T08:21:29.686Z,19.74
2022-09-06T08:24:01.378Z,19.95
2022-09-06T08:26:31.614Z,19.50
2022-09-06T08:29:01.776Z,19.68
2022-09-06T08:31:32.420Z,19.39
2022-09-06T08:34:01.926Z,19.90
2022-09-06T08:36:31.234Z,19.24
2022-09-06T08:39:02.308Z,19.03
2022-09-06T08:41:37.143Z,19.36
2022-09-06T08:47:01.747Z,19.51
2022-09-06T08:49:34.849Z,19.26
2022-09-06T08:52:25.113Z,19.51
2022-09-06T08:55:13.920Z,19.43
2022-09-06T08:58:05.877Z,19.52
2022-09-06T09:00:36.764Z,20.57
2022-09-06T09:03:17.029Z,21.14
2022-09-06T09:05:52.914Z,21.24
2022-09-06T09:08:27.931Z,21.06
2022-09-06T09:11:04.138Z,20.93
2022-09-06T09:13:40.212Z,20.45
2022-09-06T09:16:08.718Z,20.18
2022-09-06T09:18:41.282Z,20.95
2022-09-06T09:21:11.193Z,21.18
2022-09-06T09:23:39.029Z,21.08
2022-09-06T09:26:15.163Z,21.01
2022-09-06T09:29:08.914Z,20.62
2022-09-06T09:31:40.529Z,20.66
2022-09-06T09:34:13.840Z,20.45
2022-09-06T09:39:37.227Z,20.53
2022-09-06T09:42:08.157Z,20.14
2022-09-06T09:44:43.186Z,20.27
2022-09-06T09:47:28.413Z,20.62
2022-09-06T09:49:58.068Z,20.27
2022-09-06T09:52:29.244Z,20.33
2022-09-06T09:55:00.982Z,20.66
2022-09-06T09:57:43.856Z,20.69
2022-09-06T10:00:13.992Z,21.26
2022-09-06T10:02:43.490Z,20.49
2022-09-06T10:05:21.717Z,21.06
2022-09-06T10:07:53.418Z,20.85
2022-09-06T10:10:24.702Z,20.97
2022-09-06T10:13:21.961Z,21.35
2022-09-06T10:15:52.912Z,20.66
2022-09-06T10:18:33.015Z,21.68
2022-09-06T10:21:04.152Z,21.48
2022-09-06T10:26:52.007Z,21.91
2022-09-06T10:29:35.932Z,21.30
2022-09-06T10:32:30.929Z,21.75
2022-09-06T10:35:15.902Z,21.98
2022-09-06T10:37:55.469Z,22.02
2022-09-06T10:40:34.734Z,22.04
2022-09-06T10:43:05.841Z,21.71
2022-09-06T10:45:46.676Z,21.88
2022-09-06T10:48:24.924Z,22.13
2022-09-06T10:50:58.272Z,22.75
2022-09-06T10:53:45.203Z,23.00
2022-09-06T10:56:21.739Z,22.78
2022-09-06T11:02:09.705Z,22.13
2022-09-06T11:07:32.671Z,22.11
2022-09-06T11:10:08.676Z,22.32
2022-09-06T11:12:45.194Z,21.82
2022-09-06T11:15:17.073Z,22.31
2022-09-06T11:17:53.864Z,22.41
2022-09-06T11:20:32.101Z,22.15
2022-09-06T11:23:30.703Z,22.48
2022-09-06T11:26:32.208Z,23.06
2022-09-06T11:29:03.394Z,23.05
2022-09-06T11:34:28.709Z,22.18
2022-09-06T11:36:59.706Z,22.00
2022-09-06T11:43:03.738Z,22.86
2022-09-06T11:45:44.704Z,23.19
2022-09-06T11:49:05.277Z,22.85
2022-09-06T11:51:38.533Z,23.36
2022-09-06T11:54:30.001Z,22.62
2022-09-06T11:57:03.488Z,22.94
2022-09-06T11:59:55.725Z,22.70
2022-09-06T12:02:35.023Z,22.81
2022-09-06T12:05:25.590Z,23.21
2022-09-06T12:08:31.853Z,23.17
2022-09-06T12:11:29.024Z,23.54
2022-09-06T12:14:03.452Z,23.09
2022-09-06T12:17:27.137Z,23.48
2022-09-06T12:20:03.685Z,23.50
2022-09-06T12:23:04.756Z,23.63
2022-09-06T12:25:59.549Z,23.54
2022-09-06T12:28:36.164Z,22.87
2022-09-06T12:31:29.292Z,23.17
2022-09-06T12:33:59.374Z,23.56
2022-09-06T12:36:31.361Z,23.83
2022-09-06T12:39:01.860Z,22.97
2022-09-06T12:41:42.963Z,23.38
2022-09-06T12:44:12.330Z,23.49
2022-09-06T12:46:49.834Z,23.89
2022-09-06T12:49:22.312Z,23.53
2022-09-06T12:51:50.872Z,22.97
2022-09-06T12:54:23.754Z,23.28
2022-09-06T12:56:54.061Z,23.06
2022-09-06T12:59:25.036Z,22.97
2022-09-06T13:02:02.367Z,23.16
2022-09-06T13:04:41.562Z,23.41
2022-09-06T13:07:15.789Z,23.62
2022-09-06T13:09:47.520Z,23.50
2022-09-06T13:12:26.498Z,24.06
2022-09-06T13:14:56.592Z,23.93
2022-09-06T13:17:28.462Z,23.74
2022-09-06T13:19:58.125Z,23.16
2022-09-06T13:22:42.809Z,23.36
2022-09-06T13:25:25.933Z,23.83
2022-09-06T13:27:58.485Z,24.05
2022-09-06T13:30:42.003Z,23.75
2022-09-06T13:33:25.460Z,23.90
2022-09-06T13:36:09.515Z,23.92
2022-09-06T13:38:43.114Z,24.28
2022-09-06T13:41:38.912Z,24.05
2022-09-06T13:44:21.358Z,23.85
2022-09-06T13:46:55.178Z,24.39
2022-09-06T13:49:23.755Z,24.31
2022-09-06T13:51:53.255Z,24.16
2022-09-06T13:54:22.627Z,23.84
2022-09-06T13:56:51.258Z,24.55
2022-09-06T13:59:21.154Z,23.67
2022-09-06T14:02:01.015Z,24.26
2022-09-06T14:04:29.195Z,24.11
2022-09-06T14:06:57.500Z,23.88
2022-09-06T14:09:25.409Z,23.55
2022-09-06T14:11:53.264Z,24.29
2022-09-06T14:14:22.559Z,23.77
2022-09-06T14:16:50.375Z,23.55
2022-09-06T14:19:18.437Z,24.06
2022-09-06T14:21:46.390Z,24.36
2022-09-06T14:24:14.509Z,24.15
2022-09-06T14:26:42.325Z,24.31
2022-09-06T14:29:10.228Z,23.98
2022-09-06T14:31:39.896Z,23.73
2022-09-06T14:34:07.888Z,24.13
2022-09-06T14:36:35.821Z,24.79
2022-09-06T14:39:04.786Z,25.03
2022-09-06T14:41:32.965Z,24.38
2022-09-06T14:44:01.284Z,24.11
2022-09-06T14:46:29.996Z,24.23
2022-09-06T14:49:02.124Z,24.28
2022-09-06T14:51:31.319Z,24.22
2022-09-06T14:54:04.740Z,23.98
2022-09-06T14:56:32.595Z,24.37
2022-09-06T14:59:00.742Z,24.61
2022-09-06T15:01:34.358Z,24.23
2022-09-06T15:04:10.173Z,24.34
2022-09-06T15:06:40.624Z,24.17
2022-09-06T15:09:11.232Z,23.89
2022-09-06T15:11:43.576Z,23.37
2022-09-06T15:14:16.754Z,23.72
2022-09-06T15:16:45.631Z,23.62
2022-09-06T15:19:15.525Z,24.07
2022-09-06T15:21:44.082Z,24.08
2022-09-06T15:24:12.525Z,23.92
2022-09-06T15:26:41.159Z,24.23
2022-09-06T15:29:09.695Z,24.12
2022-09-06T15:31:38.391Z,24.17
2022-09-06T15:34:06.662Z,23.51
2022-09-06T15:36:36.554Z,23.89
2022-09-06T15:39:06.928Z,24.24
2022-09-06T15:41:39.160Z,24.25
2022-09-06T15:44:10.483Z,24.25
2022-09-06T15:46:45.399Z,24.21
2022-09-06T15:49:16.925Z,24.48
2022-09-06T15:51:46.610Z,24.30
2022-09-06T15:54:17.429Z,23.35
2022-09-06T15:56:46.190Z,23.94
2022-09-06T15:59:14.018Z,23.36
2022-09-06T16:01:42.062Z,23.25
2022-09-06T16:04:10.739Z,23.08
2022-09-06T16:06:42.551Z,23.38
2022-09-06T16:09:15.036Z,23.71
2022-09-06T16:11:43.584Z,23.98
2022-09-06T16:14:15.378Z,23.62
2022-09-06T16:16:46.120Z,23.84
2022-09-06T16:19:14.463Z,23.88
2022-09-06T16:21:44.622Z,23.58
2022-09-06T16:24:15.505Z,23.66
2022-09-06T16:26:46.271Z,23.13
2022-09-06T16:29:18.262Z,22.94
2022-09-06T16:31:48.821Z,22.82
2022-09-06T16:34:17.309Z,23.43
2022-09-06T16:36:45.264Z,23.36
2022-09-06T16:39:14.647Z,22.98
2022-09-06T16:41:45.791Z,22.70
2022-09-06T16:44:17.363Z,23.04
2022-09-06T16:46:47.426Z,23.30
2022-09-06T16:49:17.392Z,23.58
2022-09-06T16:51:46.260Z,23.01
2022-09-06T16:54:18.323Z,23.14
2022-09-06T16:56:46.395Z,23.02
2022-09-06T16:59:17.040Z,23.15
2022-09-06T17:01:45.626Z,22.78
2022-09-06T17:04:13.905Z,23.31
2022-09-06T17:06:44.413Z,23.20
2022-09-06T17:09:16.022Z,23.27
2022-09-06T17:11:43.912Z,22.68
2022-09-06T17:14:12.180Z,22.26
2022-09-06T17:16:57.930Z,22.35
2022-09-06T17:19:26.488Z,22.37
2022-09-06T17:21:54.726Z,22.50
2022-09-06T17:24:23.940Z,22.73
2022-09-06T17:26:51.848Z,22.86
2022-09-06T17:29:20.435Z,22.86
2022-09-06T17:31:49.494Z,22.74
2022-09-06T17:34:17.654Z,22.51
2022-09-06T17:36:45.900Z,22.64
2022-09-06T17:39:17.691Z,22.39
2022-09-06T17:41:52.245Z,22.55
2022-09-06T17:44:22.322Z,22.28
2022-09-06T17:47:12.000Z,22.44
2022-09-06T17:49:38.183Z,22.48
2022-09-06T17:52:06.029Z,22.29
2022-09-06T17:54:33.895Z,22.56
2022-09-06T17:57:03.040Z,22.86
2022-09-06T17:59:35.121Z,23.19
2022-09-06T18:02:05.432Z,22.97
2022-09-06T18:04:33.721Z,22.64
2022-09-06T18:07:01.607Z,22.76
2022-09-06T18:09:29.652Z,23.26
2022-09-06T18:11:58.376Z,23.35
2022-09-06T18:14:28.568Z,22.51
2022-09-06T18:16:56.729Z,22.52
2022-09-06T18:19:24.787Z,22.72
2022-09-06T18:21:52.619Z,22.58
2022-09-06T18:24:20.424Z,22.35
2022-09-06T18:26:49.114Z,22.78
2022-09-06T18:29:18.405Z,22.98
2022-09-06T18:31:47.660Z,23.21
2022-09-06T18:34:16.618Z,22.88
2022-09-06T18:36:44.457Z,22.81
2022-09-06T18:39:13.170Z,22.03
2022-09-06T18:41:58.753Z,22.87
2022-09-06T18:44:30.230Z,22.66
2022-09-06T18:47:03.181Z,22.90
2022-09-06T18:49:32.492Z,22.77
2022-09-06T18:52:01.100Z,22.71
2022-09-06T18:54:29.588Z,22.72
2022-09-06T18:56:57.952Z,22.95
2022-09-06T18:59:25.795Z,22.81
2022-09-06T19:01:53.736Z,22.90
2022-09-06T19:04:23.466Z,22.49
2022-09-06T19:06:51.287Z,22.26
2022-09-06T19:09:19.301Z,22.05
2022-09-06T19:11:51.295Z,22.40
2022-09-06T19:14:19.401Z,22.37
2022-09-06T19:16:48.681Z,22.74
2022-09-06T19:19:16.580Z,22.80
2022-09-06T19:21:46.106Z,22.11
2022-09-06T19:24:15.558Z,22.17
2022-09-06T19:26:45.228Z,22.49
2022-09-06T19:29:17.359Z,22.44
2022-09-06T19:31:47.030Z,22.71
2022-09-06T19:34:15.861Z,22.85
2022-09-06T19:36:46.239Z,22.58
2022-09-06T19:39:17.086Z,22.60
2022-09-06T19:41:47.801Z,22.28
2022-09-06T19:44:20.657Z,22.50
2022-09-06T19:46:49.301Z,22.42
2022-09-06T19:49:19.145Z,22.75
2022-09-06T19:51:50.818Z,21.93
2022-09-06T19:54:19.622Z,22.29
2022-09-06T19:56:48.678Z,22.07
2022-09-06T19:59:17.696Z,22.19
2022-09-06T20:01:49.869Z,22.43
2022-09-06T20:04:17.982Z,22.00
2022-09-06T20:06:46.031Z,22.58
2022-09-06T20:09:16.450Z,22.34
2022-09-06T20:11:45.048Z,22.07
2022-09-06T20:14:13.404Z,22.13
2022-09-06T20:16:42.907Z,22.69
2022-09-06T20:19:14.547Z,22.35
2022-09-06T20:21:43.192Z,22.49
2022-09-06T20:24:11.125Z,22.33
2022-09-06T20:26:40.412Z,22.10
2022-09-06T20:29:08.981Z,22.13
2022-09-06T20:31:38.538Z,22.11
2022-09-06T20:34:08.229Z,22.40
2022-09-06T20:36:36.723Z,22.52
2022-09-06T20:39:05.200Z,22.22
2022-09-06T20:41:33.753Z,22.58
2022-09-06T20:44:06.378Z,22.05
2022-09-06T20:46:36.010Z,22.05
2022-09-06T20:49:05.105Z,22.49
2022-09-06T20:51:35.551Z,21.79
2022-09-06T20:54:06.237Z,22.06
2022-09-06T20:56:37.317Z,22.26
2022-09-06T20:59:08.835Z,22.52
2022-09-06T21:01:40.600Z,22.03
2022-09-06T21:04:10.546Z,21.63
2022-09-06T21:06:40.010Z,21.63
2022-09-06T21:09:11.713Z,21.46
2022-09-06T21:11:43.228Z,21.99
2022-09-06T21:14:13.813Z,21.70
2022-09-06T21:16:44.249Z,21.79
2022-09-06T21:19:12.995Z,21.78
2022-09-06T21:21:41.670Z,22.02
2022-09-06T21:24:11.611Z,22.03
2022-09-06T21:26:40.878Z,22.04
2022-09-06T21:29:11.478Z,21.98
2022-09-06T21:31:42.410Z,21.90
2022-09-06T21:34:16.808Z,21.77
2022-09-06T21:36:45.622Z,22.15
2022-09-06T21:39:13.953Z,21.98
2022-09-06T21:41:44.306Z,21.87
2022-09-06T21:44:13.027Z,21.72
2022-09-06T21:46:42.978Z,21.70
2022-09-06T21:49:13.817Z,21.67
2022-09-06T21:51:42.423Z,22.00
2022-09-06T21:54:10.455Z,21.95
2022-09-06T21:56:40.059Z,22.12
2022-09-06T21:59:09.160Z,21.74
2022-09-06T22:01:39.490Z,21.85
2022-09-06T22:04:11.413Z,21.77
2022-09-06T22:06:40.549Z,21.78
2022-09-06T22:09:12.130Z,21.89
2022-09-06T22:11:43.006Z,21.43
2022-09-06T22:14:14.583Z,21.55
2022-09-06T22:16:42.982Z,21.27
2022-09-06T22:19:12.782Z,21.50
2022-09-06T22:21:41.237Z,21.69
2022-09-06T22:24:12.590Z,21.86
2022-09-06T22:26:42.042Z,21.65
2022-09-06T22:29:13.446Z,21.15
2022-09-06T22:31:41.439Z,21.08
2022-09-06T22:34:10.333Z,21.26
2022-09-06T22:36:40.020Z,21.19
2022-09-06T22:39:07.850Z,21.08
2022-09-06T22:41:35.777Z,21.19
2022-09-06T22:44:05.217Z,20.74
2022-09-06T22:46:34.046Z,21.12
2022-09-06T22:49:02.481Z,20.66
2022-09-06T22:51:30.328Z,21.10
2022-09-06T22:53:59.462Z,20.79
2022-09-06T22:56:27.290Z,20.86
2022-09-06T22:58:55.141Z,20.90
2022-09-06T23:01:23.015Z,21.43
2022-09-06T23:03:51.602Z,21.49
2022-09-06T23:06:19.520Z,21.07
2022-09-06T23:08:47.438Z,21.18
2022-09-06T23:11:19.618Z,21.50
2022-09-06T23:13:47.624Z,21.33
2022-09-06T23:16:19.409Z,21.28
2022-09-06T23:18:49.204Z,21.50
2022-09-06T23:21:19.386Z,21.43
2022-09-06T23:23:49.889Z,21.02
2022-09-06T23:26:21.702Z,20.25
2022-09-06T23:28:56.301Z,20.97
2022-09-06T23:31:26.782Z,21.21
2022-09-06T23:33:56.887Z,21.47
2022-09-06T23:36:25.555Z,20.83
2022-09-06T23:38:53.657Z,20.49
2022-09-06T23:41:22.923Z,20.71
2022-09-06T23:43:51.040Z,21.26
2022-09-06T23:46:19.341Z,21.01
2022-09-06T23:48:47.443Z,21.31
2022-09-06T23:51:15.532Z,21.59
2022-09-06T23:53:43.397Z,21.27
2022-09-06T23:56:11.590Z,21.09
2022-09-06T23:58:41.106Z,21.20
